Time;durP1;ratioP1;P1;durP2;ratioP2;P2;SDS_P1;SDS_P2;PMS_P1;PMS_P2;Temp;Humidity;BMP_temperature;BMP_pressure;BME280_temperature;BME280_humidity;BME280_pressure;Samples;Min_cycle;Max_cycle;Signal;HPM_P1;HPM_P2
2024/03/02 00:02:31;;;;;;;8.23;2.40;;;;;;;8.65;100.00;99702.44;5063443;28;20143;-67
2024/03/02 00:05:20;;;;;;;3.90;2.10;;;;;;;8.64;100.00;99706.28;5123534;27;20133;-67
2024/03/02 00:08:08;;;;;;;4.70;2.33;;;;;;;8.62;100.00;99697.59;5118337;27;20051;-67
2024/03/02 00:10:58;;;;;;;4.68;1.77;;;;;;;8.64;100.00;99717.13;5126577;27;20517;-67
2024/03/02 00:13:48;;;;;;;5.90;2.38;;;;;;;8.64;100.00;99714.44;5111035;27;20495;-67
2024/03/02 00:16:36;;;;;;;5.57;2.33;;;;;;;8.65;100.00;99729.59;5110641;27;20589;-67
2024/03/02 00:19:25;;;;;;;4.85;2.30;;;;;;;8.64;100.00;99733.44;5073243;28;20416;-67
2024/03/02 00:22:13;;;;;;;5.70;2.00;;;;;;;8.64;100.00;99741.56;5090670;28;20048;-66
2024/03/02 00:25:01;;;;;;;5.05;2.15;;;;;;;8.63;100.00;99742.66;5106808;27;20146;-67
2024/03/02 00:27:49;;;;;;;7.25;2.20;;;;;;;8.61;100.00;99742.13;5117696;27;20051;-68
2024/03/02 00:30:58;;;;;;;4.78;2.40;;;;;;;8.63;100.00;99748.09;5132337;27;20043;-66
2024/03/02 00:33:47;;;;;;;6.32;2.67;;;;;;;8.69;100.00;99795.84;5117601;27;20459;-67
2024/03/02 00:36:35;;;;;;;4.75;2.05;;;;;;;8.71;100.00;99815.41;5101703;28;20059;-67
2024/03/02 00:39:23;;;;;;;2.10;1.20;;;;;;;8.69;100.00;99821.09;5081677;28;20423;-67
2024/03/02 00:42:12;;;;;;;3.30;1.60;;;;;;;8.62;100.00;99819.78;5095658;28;20051;-67
2024/03/02 00:45:00;;;;;;;1.58;1.10;;;;;;;8.55;100.00;99822.78;5113052;28;20056;-67
2024/03/02 00:47:48;;;;;;;3.83;1.88;;;;;;;8.61;100.00;99818.16;5094932;28;20097;-66
2024/03/02 00:50:37;;;;;;;1.17;1.10;;;;;;;8.55;100.00;99814.66;5110632;28;20528;-67
2024/03/02 00:53:26;;;;;;;2.15;1.48;;;;;;;8.55;100.00;99811.13;5111737;28;20044;-67
2024/03/02 00:56:14;;;;;;;1.30;1.17;;;;;;;8.48;100.00;99817.66;5097752;28;20388;-68
2024/03/02 00:59:02;;;;;;;3.17;1.67;;;;;;;8.51;100.00;99825.28;5109690;28;20176;-68
2024/03/02 01:01:52;;;;;;;1.52;1.38;;;;;;;8.48;100.00;99833.94;5095600;28;20050;-68
2024/03/02 01:04:40;;;;;;;1.50;1.33;;;;;;;8.49;100.00;99842.91;5096823;28;20048;-67
2024/03/02 01:07:28;;;;;;;1.48;0.90;;;;;;;8.42;100.00;99845.94;5095168;28;20169;-67
2024/03/02 01:10:15;;;;;;;2.60;1.70;;;;;;;8.45;100.00;99845.38;5108423;28;20492;-67
2024/03/02 01:13:04;;;;;;;3.97;2.00;;;;;;;8.58;100.00;99833.09;5091607;28;20137;-67
2024/03/02 01:15:53;;;;;;;4.57;1.92;;;;;;;8.52;100.00;99840.47;5106833;28;20078;-67
2024/03/02 01:18:41;;;;;;;2.40;1.70;;;;;;;8.50;100.00;99837.22;5095831;28;20052;-68
2024/03/02 01:21:29;;;;;;;2.78;1.95;;;;;;;8.48;100.00;99836.66;5075625;28;20056;-67
2024/03/02 01:24:17;;;;;;;3.20;2.08;;;;;;;8.50;100.00;99834.50;5069012;28;20377;-66
2024/03/02 01:27:05;;;;;;;3.28;2.20;;;;;;;8.49;100.00;99840.19;5090053;28;20048;-68
2024/03/02 01:29:54;;;;;;;2.95;2.20;;;;;;;8.46;100.00;99835.31;5090179;28;20044;-68
2024/03/02 01:32:42;;;;;;;3.65;2.10;;;;;;;8.49;100.00;99830.16;5062627;28;20046;-68
2024/03/02 01:35:30;;;;;;;1.98;1.73;;;;;;;8.42;100.00;99835.09;5110170;28;20175;-67
2024/03/02 01:38:18;;;;;;;1.02;0.90;;;;;;;8.40;100.00;99828.31;5110431;28;20476;-67
2024/03/02 01:41:06;;;;;;;4.15;1.83;;;;;;;8.41;100.00;99829.91;5095754;28;20048;-63
2024/03/02 01:43:53;;;;;;;2.58;1.77;;;;;;;8.40;100.00;99834.53;5104881;28;20054;-61
2024/03/02 01:46:41;;;;;;;2.97;1.77;;;;;;;8.39;100.00;99823.91;5149980;28;20074;-67
2024/03/02 01:49:29;;;;;;;1.70;1.10;;;;;;;8.36;100.00;99825.28;5115140;28;20062;-67
2024/03/02 01:52:17;;;;;;;1.45;1.35;;;;;;;8.36;100.00;99830.72;5115079;28;20058;-66
2024/03/02 01:55:07;;;;;;;1.30;1.20;;;;;;;8.36;100.00;99835.34;5120791;28;20080;-63
2024/03/02 01:57:59;;;;;;;2.53;1.73;;;;;;;8.37;100.00;99826.09;5105846;28;20059;-65
2024/03/02 02:00:47;;;;;;;2.45;1.42;;;;;;;8.37;100.00;99821.50;5076397;28;20044;-68
2024/03/02 02:03:36;;;;;;;4.25;1.48;;;;;;;8.36;100.00;99825.28;5095504;28;20056;-68
2024/03/02 02:06:26;;;;;;;1.58;1.00;;;;;;;8.35;100.00;99826.41;5111211;28;20051;-68
2024/03/02 02:09:14;;;;;;;3.22;1.02;;;;;;;8.36;100.00;99819.88;5075751;28;20559;-68
2024/03/02 02:12:03;;;;;;;2.95;1.52;;;;;;;8.38;100.00;99823.13;5089545;28;20483;-68
2024/03/02 02:14:51;;;;;;;2.92;1.90;;;;;;;8.39;100.00;99835.59;5109454;28;20048;-67
2024/03/02 02:17:39;;;;;;;3.38;2.17;;;;;;;8.40;100.00;99831.81;5108981;28;20406;-67
2024/03/02 02:20:27;;;;;;;2.60;1.75;;;;;;;8.43;100.00;99831.25;5099238;28;20047;-68
2024/03/02 02:23:15;;;;;;;2.10;1.80;;;;;;;8.46;100.00;99830.69;5100774;27;20100;-67
2024/03/02 02:26:03;;;;;;;1.95;1.42;;;;;;;8.40;100.00;99829.13;5095234;28;20105;-68
2024/03/02 02:28:51;;;;;;;3.28;1.83;;;;;;;8.45;100.00;99829.09;5066105;28;20178;-68
2024/03/02 02:31:40;;;;;;;4.10;2.40;;;;;;;8.47;100.00;99826.91;5078796;28;20609;-68
2024/03/02 02:34:28;;;;;;;4.43;2.38;;;;;;;8.46;100.00;99825.28;5115433;27;20546;-68
2024/03/02 02:37:16;;;;;;;1.98;1.77;;;;;;;8.52;100.00;99817.94;5077408;28;20044;-68
2024/03/02 02:40:05;;;;;;;2.90;1.70;;;;;;;8.44;100.00;99832.06;5078486;28;20060;-67
2024/03/02 02:42:53;;;;;;;2.28;1.88;;;;;;;8.40;100.00;99822.88;5094527;27;20040;-68
2024/03/02 02:45:41;;;;;;;2.72;1.48;;;;;;;8.38;100.00;99823.13;5119384;27;20070;-67
2024/03/02 02:48:29;;;;;;;1.52;1.35;;;;;;;8.36;100.00;99819.88;5115028;27;20047;-67
2024/03/02 02:51:17;;;;;;;2.78;1.70;;;;;;;8.38;100.00;99817.69;5113105;28;20135;-67
2024/03/02 02:54:05;;;;;;;1.35;1.25;;;;;;;8.37;100.00;99812.53;5113431;27;20079;-68
2024/03/02 02:56:53;;;;;;;1.88;1.73;;;;;;;8.35;100.00;99818.25;5114712;28;20052;-67
2024/03/02 02:59:41;;;;;;;2.38;1.80;;;;;;;8.40;100.00;99804.69;5078760;28;20122;-68
2024/03/02 03:02:29;;;;;;;2.53;1.63;;;;;;;8.40;100.00;99826.41;5094256;28;20094;-68
2024/03/02 03:05:18;;;;;;;3.53;1.80;;;;;;;8.41;100.00;99836.16;5093464;28;20052;-67
2024/03/02 03:08:06;;;;;;;2.65;1.30;;;;;;;8.36;100.00;99825.28;5082816;28;20047;-67
2024/03/02 03:10:54;;;;;;;3.05;1.42;;;;;;;8.32;100.00;99827.75;5098249;28;20043;-67
2024/03/02 03:13:42;;;;;;;1.92;1.25;;;;;;;8.35;100.00;99834.53;5094219;28;20492;-68
2024/03/02 03:16:30;;;;;;;1.98;1.45;;;;;;;8.32;100.00;99830.47;5084772;28;20097;-68
2024/03/02 03:19:18;;;;;;;2.53;1.20;;;;;;;8.32;100.00;99843.22;5097733;28;20172;-68
2024/03/02 03:22:06;;;;;;;1.63;1.52;;;;;;;8.33;100.00;99851.09;5099663;28;20177;-68
2024/03/02 03:24:54;;;;;;;2.33;1.17;;;;;;;8.30;100.00;99848.94;5112791;28;20130;-67
2024/03/02 03:27:42;;;;;;;1.63;1.40;;;;;;;8.32;100.00;99840.50;5097814;28;20047;-67
2024/03/02 03:30:30;;;;;;;3.08;1.52;;;;;;;8.34;100.00;99849.19;5109834;28;21027;-67
2024/03/02 03:33:19;;;;;;;1.58;1.17;;;;;;;8.30;100.00;99854.38;5110808;27;20054;-67
2024/03/02 03:36:07;;;;;;;3.00;1.83;;;;;;;8.37;100.00;99854.06;5083785;28;20047;-67
2024/03/02 03:38:54;;;;;;;2.28;1.83;;;;;;;8.41;100.00;99844.28;5112347;28;20118;-68
2024/03/02 03:41:43;;;;;;;3.33;1.83;;;;;;;8.41;100.00;99848.91;5096192;28;20044;-68
2024/03/02 03:44:31;;;;;;;1.95;1.80;;;;;;;8.33;100.00;99848.38;5064311;28;20071;-67
2024/03/02 03:47:20;;;;;;;3.33;2.15;;;;;;;8.37;100.00;99843.22;5078231;28;20421;-68
2024/03/02 03:50:08;;;;;;;2.13;1.58;;;;;;;8.32;100.00;99852.19;5092354;28;20052;-68
2024/03/02 03:52:56;;;;;;;3.13;1.88;;;;;;;8.31;100.00;99871.44;5090929;28;20075;-67
2024/03/02 03:55:46;;;;;;;2.70;1.63;;;;;;;8.25;100.00;99864.41;5096876;28;20051;-67
2024/03/02 03:58:34;;;;;;;2.03;1.17;;;;;;;8.23;100.00;99850.31;5112367;28;20044;-67
2024/03/02 04:01:22;;;;;;;1.65;0.90;;;;;;;8.19;100.00;99841.91;5107708;28;20100;-67
2024/03/02 04:04:10;;;;;;;1.50;1.08;;;;;;;8.17;100.00;99864.97;5117470;27;20202;-67
2024/03/02 04:06:58;;;;;;;1.48;0.93;;;;;;;8.17;100.00;99864.97;5133384;27;20422;-67
2024/03/02 04:09:46;;;;;;;1.25;0.80;;;;;;;8.16;100.00;99857.94;5117138;27;20043;-67
2024/03/02 04:12:36;;;;;;;1.20;1.10;;;;;;;8.14;100.00;99870.97;5075219;28;20048;-67
2024/03/02 04:15:24;;;;;;;3.35;1.13;;;;;;;8.18;100.00;99866.59;5078815;28;20060;-67
2024/03/02 04:18:13;;;;;;;2.20;1.20;;;;;;;8.14;100.00;99865.53;5083676;27;20511;-67
2024/03/02 04:21:00;;;;;;;1.83;1.35;;;;;;;8.13;100.00;99866.59;5110757;28;20247;-66
2024/03/02 04:23:48;;;;;;;5.07;1.23;;;;;;;8.13;100.00;99869.31;5106130;28;20044;-67
2024/03/02 04:26:36;;;;;;;1.83;1.15;;;;;;;8.22;100.00;99873.09;5091795;28;20048;-67
2024/03/02 04:29:24;;;;;;;3.88;1.67;;;;;;;8.24;100.00;99876.34;5100408;27;20118;-66
2024/03/02 04:32:12;;;;;;;2.33;1.75;;;;;;;8.23;100.00;99869.31;5115772;27;20541;-67
2024/03/02 04:35:00;;;;;;;2.55;1.30;;;;;;;8.17;100.00;99870.41;5094585;28;20415;-67
2024/03/02 04:37:48;;;;;;;2.55;1.25;;;;;;;8.15;100.00;99862.53;5084927;28;20094;-67
2024/03/02 04:40:36;;;;;;;1.35;0.95;;;;;;;8.14;100.00;99862.81;5124654;27;20410;-68
2024/03/02 04:43:24;;;;;;;3.78;1.35;;;;;;;8.08;100.00;99862.84;5110282;28;20046;-67
2024/03/02 04:46:12;;;;;;;1.65;1.00;;;;;;;8.02;100.00;99866.63;5096515;28;20099;-68
2024/03/02 04:49:00;;;;;;;1.65;1.05;;;;;;;8.01;100.00;99862.31;5110904;28;20039;-68
2024/03/02 04:51:48;;;;;;;1.95;1.10;;;;;;;8.00;100.00;99871.53;5096795;28;20066;-67
2024/03/02 04:55:09;;;;;;;3.17;1.25;;;;;;;8.02;100.00;99871.25;5091027;28;20107;-69
2024/03/02 04:57:46;;;;;;;1.42;1.08;;;;;;;8.00;100.00;99873.44;5091053;28;20043;-68
2024/03/02 05:00:34;;;;;;;2.20;0.80;;;;;;;7.98;100.00;99879.13;5101869;27;20520;-67
2024/03/02 05:03:22;;;;;;;2.45;1.00;;;;;;;7.96;100.00;99880.47;5090971;28;20075;-68
2024/03/02 05:06:10;;;;;;;3.67;1.20;;;;;;;7.95;100.00;99876.97;5090453;28;20052;-68
2024/03/02 05:08:58;;;;;;;1.65;1.00;;;;;;;7.93;100.00;99881.84;5104412;28;20052;-68
2024/03/02 05:14:53;;;;;;;1.20;1.10;;;;;;;7.96;100.00;99883.19;5091176;28;20101;-68
2024/03/02 05:17:45;;;;;;;0.85;0.80;;;;;;;7.97;100.00;99876.69;5089616;28;20052;-68
2024/03/02 05:20:33;;;;;;;2.63;1.33;;;;;;;7.98;100.00;99887.25;5096118;28;20447;-68
2024/03/02 05:23:21;;;;;;;1.23;1.13;;;;;;;7.97;100.00;99887.53;5114530;27;20057;-68
2024/03/02 05:26:12;;;;;;;2.22;1.15;;;;;;;7.96;100.00;99885.91;5115857;27;20050;-68
2024/03/02 05:29:00;;;;;;;3.50;1.42;;;;;;;7.91;100.00;99889.44;5102767;28;20491;-69
2024/03/02 05:31:49;;;;;;;2.05;1.05;;;;;;;7.83;100.00;99895.41;5096591;28;20052;-69
2024/03/02 05:34:36;;;;;;;1.63;1.15;;;;;;;7.73;100.00;99895.44;5096529;28;20054;-69
2024/03/02 05:37:25;;;;;;;1.33;0.90;;;;;;;7.67;100.00;99903.56;5096171;28;20396;-69
2024/03/02 05:40:13;;;;;;;3.20;1.42;;;;;;;7.67;100.00;99911.72;5095813;28;20059;-68
2024/03/02 05:43:01;;;;;;;3.83;1.50;;;;;;;7.69;100.00;99914.94;5082683;28;20056;-68
2024/03/02 05:45:49;;;;;;;2.88;1.23;;;;;;;7.76;100.00;99914.66;5076607;28;20040;-69
2024/03/02 05:48:37;;;;;;;1.85;1.05;;;;;;;7.76;100.00;99919.28;5089737;28;20048;-67
2024/03/02 05:51:25;;;;;;;1.65;1.23;;;;;;;7.82;100.00;99920.94;5128394;28;20043;-67
2024/03/02 05:54:13;;;;;;;1.83;1.40;;;;;;;7.89;100.00;99916.03;5114392;28;20087;-67
2024/03/02 05:57:16;;;;;;;2.00;1.15;;;;;;;7.86;100.00;99928.25;5105497;28;20059;-67
2024/03/02 06:00:07;;;;;;;3.13;1.20;;;;;;;7.88;100.00;99922.53;5107233;28;20508;-64
2024/03/02 06:02:59;;;;;;;2.78;1.33;;;;;;;7.88;100.00;99927.97;5113188;28;20054;-67
2024/03/02 06:05:49;;;;;;;1.45;1.10;;;;;;;7.88;100.00;99922.53;5110106;28;20123;-68
2024/03/02 06:08:37;;;;;;;1.40;1.23;;;;;;;8.18;100.00;99920.84;5102531;28;20048;-68
2024/03/02 06:11:25;;;;;;;3.15;1.52;;;;;;;8.02;100.00;99925.50;5088336;28;20128;-68
2024/03/02 06:14:13;;;;;;;4.72;2.00;;;;;;;8.06;100.00;99926.59;5114338;28;20058;-68
2024/03/02 06:17:01;;;;;;;3.88;1.55;;;;;;;8.08;100.00;99932.53;5099783;28;20157;-68
2024/03/02 06:19:49;;;;;;;1.92;1.30;;;;;;;8.11;100.00;99932.81;5085053;28;20063;-68
2024/03/02 06:22:37;;;;;;;2.00;1.40;;;;;;;8.22;100.00;99938.22;5115069;28;20474;-68
2024/03/02 06:25:25;;;;;;;2.95;1.90;;;;;;;8.21;100.00;99942.03;5099801;28;20043;-68
2024/03/02 06:28:15;;;;;;;6.00;2.20;;;;;;;8.23;100.00;99945.31;5086609;28;20055;-68
2024/03/02 06:31:03;;;;;;;2.33;1.10;;;;;;;8.19;100.00;99941.50;5096905;28;20051;-68
2024/03/02 06:33:51;;;;;;;4.82;1.88;;;;;;;8.06;100.00;99940.97;5084931;28;20046;-67
2024/03/02 06:36:42;;;;;;;2.40;1.67;;;;;;;8.01;100.00;99943.69;5099816;28;20065;-68
2024/03/02 06:39:31;;;;;;;1.75;1.35;;;;;;;8.02;100.00;99949.94;5064921;28;20135;-68
2024/03/02 06:42:19;;;;;;;4.95;1.70;;;;;;;7.98;100.00;99944.22;5082644;28;20052;-68
2024/03/02 06:45:07;;;;;;;3.53;1.33;;;;;;;7.88;100.00;99958.59;5078405;28;20515;-68
2024/03/02 06:47:55;;;;;;;3.72;1.48;;;;;;;7.81;100.00;99954.53;5107016;27;20043;-67
2024/03/02 06:50:44;;;;;;;3.10;1.33;;;;;;;7.78;100.00;99958.59;5113884;28;20122;-68
2024/03/02 06:53:33;;;;;;;3.25;1.23;;;;;;;7.77;100.00;99953.44;5081228;28;20062;-68
2024/03/02 06:56:21;;;;;;;3.72;1.25;;;;;;;7.77;100.00;99948.84;5077783;28;20048;-67
2024/03/02 06:59:09;;;;;;;2.88;1.10;;;;;;;7.75;100.00;99947.50;5133468;27;20058;-68
2024/03/02 07:01:57;;;;;;;4.00;1.17;;;;;;;7.77;100.00;99953.44;5111679;27;20136;-68
2024/03/02 07:04:45;;;;;;;3.88;1.30;;;;;;;7.79;100.00;99957.53;5097632;28;20052;-68
2024/03/02 07:07:34;;;;;;;3.50;1.40;;;;;;;7.83;100.00;99963.22;5077397;28;20052;-69
2024/03/02 07:10:23;;;;;;;3.38;1.35;;;;;;;7.96;100.00;99967.28;5063937;28;20605;-68
2024/03/02 07:13:11;;;;;;;1.88;1.13;;;;;;;7.98;100.00;99968.63;5086365;28;20384;-68
2024/03/02 07:19:01;;;;;;;4.25;1.52;;;;;;;8.07;100.00;99983.28;5092778;28;20101;-68
2024/03/02 07:21:49;;;;;;;4.78;1.58;;;;;;;8.07;100.00;99985.19;5079459;28;20131;-69
2024/03/02 07:24:42;;;;;;;3.88;1.30;;;;;;;8.04;100.00;99983.84;5093908;28;20043;-69
2024/03/02 07:27:31;;;;;;;6.43;1.48;;;;;;;8.03;100.00;99984.94;5131048;27;20043;-69
2024/03/02 07:30:20;;;;;;;2.72;1.80;;;;;;;8.06;100.00;99986.28;5103199;27;20050;-69
2024/03/02 07:33:08;;;;;;;2.20;1.38;;;;;;;8.16;100.00;99985.47;5093605;28;20052;-68
2024/03/02 07:35:56;;;;;;;5.88;1.70;;;;;;;8.23;100.00;99975.16;5082300;27;20410;-68
2024/03/02 07:38:44;;;;;;;5.20;1.65;;;;;;;8.26;100.00;99978.13;5084061;28;20065;-68
2024/03/02 07:41:32;;;;;;;4.35;1.50;;;;;;;8.16;100.00;99986.28;5112369;28;20058;-69
2024/03/02 07:44:21;;;;;;;4.03;1.95;;;;;;;8.33;100.00;99988.69;5065298;28;20113;-69
2024/03/02 07:47:09;;;;;;;4.65;2.00;;;;;;;8.34;100.00;99990.31;5094832;27;20062;-69
2024/03/02 07:49:57;;;;;;;4.07;1.55;;;;;;;8.30;100.00;99986.53;5082455;28;20048;-68
2024/03/02 07:52:45;;;;;;;8.45;2.00;;;;;;;8.07;100.00;99985.19;5050738;28;20044;-68
2024/03/02 07:55:33;;;;;;;4.22;1.73;;;;;;;8.00;100.00;99985.44;5065247;28;20203;-68
2024/03/02 07:58:21;;;;;;;5.78;1.77;;;;;;;8.00;100.00;99990.06;5097725;28;20052;-68
2024/03/02 08:01:09;;;;;;;6.07;1.42;;;;;;;8.00;100.00;99985.44;5063850;28;20492;-69
2024/03/02 08:03:58;;;;;;;3.95;1.95;;;;;;;7.99;100.00;99991.16;5078400;28;20126;-69
2024/03/02 08:06:47;;;;;;;5.00;1.70;;;;;;;7.95;100.00;100001.72;5080286;27;20078;-68
2024/03/02 08:09:35;;;;;;;2.20;1.45;;;;;;;7.95;100.00;99998.22;5132212;27;20051;-68
2024/03/02 08:12:23;;;;;;;5.60;1.75;;;;;;;8.05;100.00;99999.00;5077711;28;20052;-68
2024/03/02 08:15:14;;;;;;;4.45;1.67;;;;;;;8.07;100.00;100002.28;5078447;28;20131;-68
2024/03/02 08:18:02;;;;;;;2.33;1.38;;;;;;;8.26;100.00;100005.25;5110836;28;20052;-67
2024/03/02 08:20:50;;;;;;;4.03;1.73;;;;;;;8.42;100.00;100008.81;5094116;28;20036;-69
2024/03/02 08:23:40;;;;;;;3.03;1.67;;;;;;;8.33;100.00;100007.69;5112070;28;20494;-68
2024/03/02 08:26:31;;;;;;;3.58;1.42;;;;;;;8.30;100.00;100000.91;5099252;28;20048;-69
2024/03/02 08:29:19;;;;;;;5.55;2.50;;;;;;;8.17;100.00;100011.50;5082779;28;20523;-69
2024/03/02 08:32:07;;;;;;;5.97;2.20;;;;;;;8.03;100.00;100005.78;5094464;28;20043;-67
2024/03/02 08:34:55;;;;;;;6.47;2.25;;;;;;;8.01;100.00;100005.25;5099059;28;20553;-68
2024/03/02 08:37:43;;;;;;;5.72;2.05;;;;;;;7.98;100.00;99997.66;5077274;28;20106;-68
2024/03/02 08:40:31;;;;;;;5.55;2.15;;;;;;;7.95;100.00;100003.63;5074343;28;20055;-68
2024/03/02 08:43:19;;;;;;;7.22;1.95;;;;;;;7.96;100.00;100000.66;5072883;28;20047;-67
2024/03/02 08:46:08;;;;;;;5.88;1.85;;;;;;;7.96;100.00;100010.69;5059491;28;20051;-68
2024/03/02 08:48:56;;;;;;;5.25;2.00;;;;;;;7.98;100.00;100003.91;5069697;28;20041;-68
2024/03/02 08:51:44;;;;;;;7.57;2.00;;;;;;;8.01;100.00;100008.81;5084115;28;20051;-68
2024/03/02 08:54:33;;;;;;;13.35;2.40;;;;;;;8.03;100.00;99997.66;5060867;28;20083;-68
2024/03/02 08:57:21;;;;;;;6.30;1.90;;;;;;;8.04;100.00;100010.97;5059633;28;20041;-67
2024/03/02 09:00:10;;;;;;;8.20;2.70;;;;;;;8.07;100.00;100004.19;5070167;28;20128;-69
2024/03/02 09:02:59;;;;;;;8.95;2.30;;;;;;;8.10;100.00;100006.34;5091709;28;20048;-68
2024/03/02 09:05:47;;;;;;;4.20;1.70;;;;;;;8.13;100.00;100010.41;5069213;28;20180;-68
2024/03/02 09:08:36;;;;;;;7.95;2.13;;;;;;;8.15;100.00;100013.66;5095585;28;20520;-68
2024/03/02 09:11:24;;;;;;;7.03;2.35;;;;;;;8.17;100.00;100011.50;5112168;28;20043;-67
2024/03/02 09:14:14;;;;;;;6.80;2.10;;;;;;;8.21;100.00;100013.41;5090283;28;20052;-68
2024/03/02 09:17:03;;;;;;;5.72;1.98;;;;;;;8.24;100.00;100015.56;5093195;28;20059;-69
2024/03/02 09:19:52;;;;;;;6.05;2.10;;;;;;;8.26;100.00;100016.09;5076986;28;20585;-69
2024/03/02 09:22:41;;;;;;;29.58;6.40;;;;;;;8.36;100.00;100009.06;5091523;28;20055;-69
2024/03/02 09:25:29;;;;;;;6.90;2.20;;;;;;;8.35;100.00;100021.81;5094525;28;20058;-68
2024/03/02 09:28:17;;;;;;;7.35;1.80;;;;;;;8.35;100.00;100018.28;5105396;28;20070;-69
2024/03/02 09:31:05;;;;;;;5.57;2.00;;;;;;;8.36;100.00;100014.47;5091118;28;20040;-69
2024/03/02 09:33:53;;;;;;;5.45;2.08;;;;;;;8.35;100.00;100008.25;5090920;28;20193;-68
2024/03/02 09:36:41;;;;;;;3.92;1.80;;;;;;;8.39;100.00;100003.88;5075294;28;20048;-68
2024/03/02 09:39:29;;;;;;;7.88;2.80;;;;;;;8.42;100.00;100003.38;5059831;28;20048;-68
2024/03/02 09:42:18;;;;;;;7.82;2.83;;;;;;;8.47;100.00;100003.38;5087430;28;20412;-69
2024/03/02 09:45:07;;;;;;;5.75;2.25;;;;;;;8.52;100.00;100002.53;5057726;28;20037;-68
2024/03/02 09:47:55;;;;;;;7.68;2.75;;;;;;;8.53;100.00;99999.53;5073360;28;20071;-68
2024/03/02 09:50:44;;;;;;;5.95;2.28;;;;;;;8.58;100.00;100006.88;5061789;28;20044;-68
2024/03/02 09:53:33;;;;;;;4.32;1.67;;;;;;;8.60;100.00;100007.41;5092073;28;20052;-69
2024/03/02 09:56:22;;;;;;;3.72;1.88;;;;;;;8.64;100.00;100010.41;5082813;28;20547;-68
2024/03/02 09:59:10;;;;;;;7.82;2.20;;;;;;;8.68;100.00;100008.75;5123875;28;20069;-68
2024/03/02 10:02:06;;;;;;;7.55;2.38;;;;;;;8.72;100.00;100013.34;5106509;28;20080;-65
2024/03/02 10:04:55;;;;;;;5.82;2.00;;;;;;;8.73;100.00;100019.59;5114131;28;20048;-67
2024/03/02 10:07:43;;;;;;;6.35;2.15;;;;;;;8.76;100.00;100010.91;5093347;28;20055;-64
2024/03/02 10:10:42;;;;;;;6.95;2.30;;;;;;;8.79;100.00;100012.25;5099505;28;20063;-66
2024/03/02 10:13:31;;;;;;;7.20;2.40;;;;;;;8.86;100.00;100002.72;5098953;28;20052;-68
2024/03/02 10:16:19;;;;;;;9.68;2.90;;;;;;;8.92;100.00;100004.34;5067839;28;20140;-67
2024/03/02 10:19:21;;;;;;;6.35;2.15;;;;;;;8.91;98.73;99996.47;5071503;28;20052;-67
2024/03/02 10:22:10;;;;;;;6.95;2.28;;;;;;;8.93;97.99;99995.09;5086833;28;20048;-68
2024/03/02 10:24:58;;;;;;;9.80;2.50;;;;;;;8.93;97.70;99997.81;5110380;28;20503;-68
2024/03/02 10:27:50;;;;;;;5.80;2.13;;;;;;;8.98;96.10;99993.47;5107676;28;20043;-67
2024/03/02 10:30:38;;;;;;;5.22;1.98;;;;;;;9.00;95.43;99983.13;5116450;28;20047;-68
2024/03/02 10:33:26;;;;;;;7.90;2.20;;;;;;;9.03;95.62;99980.66;5101477;28;20046;-69
2024/03/02 10:36:16;;;;;;;6.47;2.20;;;;;;;9.05;96.17;99974.94;5100029;28;20181;-69
2024/03/02 10:39:04;;;;;;;4.63;2.08;;;;;;;9.08;95.37;99985.25;5109793;28;20087;-68
2024/03/02 10:41:53;;;;;;;8.80;2.08;;;;;;;9.13;94.80;99977.06;5099507;28;20133;-70
2024/03/02 10:44:42;;;;;;;5.85;2.03;;;;;;;9.16;91.29;99974.63;5084492;28;20551;-70
2024/03/02 10:47:32;;;;;;;5.82;1.90;;;;;;;9.16;90.79;99977.34;5073292;28;20063;-70
2024/03/02 10:50:20;;;;;;;7.30;2.00;;;;;;;9.20;91.26;99974.88;5060533;27;20075;-68
2024/03/02 10:53:08;;;;;;;8.82;2.63;;;;;;;9.23;94.09;99974.28;5082784;28;20064;-69
2024/03/02 10:56:04;;;;;;;4.57;1.83;;;;;;;9.25;95.04;99980.28;5086774;28;20047;-68
2024/03/02 10:59:01;;;;;;;7.13;2.30;;;;;;;9.22;94.66;99983.56;5096251;28;20044;-68
2024/03/02 11:01:51;;;;;;;7.47;2.13;;;;;;;9.21;95.38;99971.03;5071730;27;20040;-67
2024/03/02 11:04:39;;;;;;;7.88;2.50;;;;;;;9.24;95.36;99975.13;5105655;27;20039;-67
2024/03/02 11:07:28;;;;;;;7.80;2.60;;;;;;;9.27;96.08;99959.06;5098161;27;20081;-69
2024/03/02 11:10:17;;;;;;;7.22;2.17;;;;;;;9.28;97.51;99965.31;5077926;28;20044;-68
2024/03/02 11:13:13;;;;;;;8.93;2.50;;;;;;;9.34;98.37;99966.91;5085931;28;20126;-68
2024/03/02 11:16:10;;;;;;;10.23;2.40;;;;;;;9.35;97.01;99974.78;5077874;28;20059;-68
2024/03/02 11:18:58;;;;;;;8.95;2.55;;;;;;;9.38;96.38;99966.06;5063478;28;20463;-68
2024/03/02 11:21:47;;;;;;;6.25;2.33;;;;;;;9.42;94.56;99970.94;5095909;28;20056;-69
2024/03/02 11:24:35;;;;;;;6.32;2.25;;;;;;;9.44;94.14;99974.19;5082159;28;20048;-67
2024/03/02 11:27:47;;;;;;;8.30;2.78;;;;;;;9.44;93.60;99971.47;5097618;27;20488;-70
2024/03/02 11:30:39;;;;;;;9.00;2.60;;;;;;;9.46;94.14;99974.72;5124356;27;20047;-69
2024/03/02 11:33:29;;;;;;;7.40;2.60;;;;;;;9.50;93.09;99978.50;5118521;27;20043;-71
2024/03/02 11:36:17;;;;;;;10.05;2.65;;;;;;;9.53;91.86;99969.78;5097873;28;20478;-70
2024/03/02 11:39:06;;;;;;;6.75;2.30;;;;;;;9.57;91.28;99973.56;5102040;27;20059;-71
2024/03/02 11:41:56;;;;;;;6.95;2.58;;;;;;;9.57;91.30;99971.66;5112225;27;20042;-70
2024/03/02 11:44:49;;;;;;;9.25;2.50;;;;;;;9.61;91.68;99966.47;5097711;28;20457;-70
2024/03/02 11:47:37;;;;;;;5.85;2.17;;;;;;;9.64;92.29;99967.81;5083503;27;20043;-69
2024/03/02 11:50:51;;;;;;;6.50;2.47;;;;;;;9.68;90.94;99960.72;5065735;28;20502;-70
2024/03/02 11:53:40;;;;;;;9.07;2.33;;;;;;;9.72;88.69;99948.19;5092114;28;20197;-70
2024/03/02 11:56:29;;;;;;;8.45;2.70;;;;;;;9.76;89.30;99954.66;5063328;28;20082;-69
2024/03/02 11:59:17;;;;;;;6.55;2.28;;;;;;;9.77;88.67;99957.09;5096783;28;20043;-70
2024/03/02 12:02:06;;;;;;;5.85;2.00;;;;;;;9.81;88.87;99949.16;5069748;28;20051;-69
2024/03/02 12:04:55;;;;;;;6.45;2.15;;;;;;;9.85;88.86;99952.16;5097021;28;20055;-70
2024/03/02 12:07:43;;;;;;;8.30;2.58;;;;;;;9.87;88.79;99939.88;5096733;28;20039;-70
2024/03/02 12:10:32;;;;;;;8.38;2.53;;;;;;;9.88;88.29;99929.81;5083614;28;20135;-70
2024/03/02 12:13:20;;;;;;;6.18;2.40;;;;;;;9.92;90.03;99933.59;5083059;28;20055;-72
2024/03/02 12:16:08;;;;;;;6.05;2.30;;;;;;;10.02;89.08;99930.78;5081752;28;20043;-71
2024/03/02 12:18:56;;;;;;;8.15;2.50;;;;;;;10.10;86.90;99927.44;5094391;28;20510;-70
2024/03/02 12:21:44;;;;;;;6.68;2.33;;;;;;;10.12;88.23;99919.78;5111497;28;20047;-69
2024/03/02 12:24:32;;;;;;;6.80;2.53;;;;;;;10.14;87.42;99912.16;5095723;28;20410;-70
2024/03/02 12:27:20;;;;;;;6.07;2.58;;;;;;;10.20;86.31;99912.94;5097726;28;20500;-71
2024/03/02 12:30:10;;;;;;;9.00;2.80;;;;;;;10.20;85.29;99902.84;5120850;27;20051;-72
2024/03/02 12:32:58;;;;;;;6.43;2.60;;;;;;;10.21;87.16;99907.16;5078625;28;20040;-71
2024/03/02 12:35:46;;;;;;;9.27;2.65;;;;;;;10.21;86.85;99901.72;5091731;28;20075;-71
2024/03/02 12:38:34;;;;;;;5.97;2.70;;;;;;;10.23;87.92;99899.53;5090374;28;20056;-70
2024/03/02 12:41:22;;;;;;;7.00;2.72;;;;;;;10.23;87.05;99887.84;5069149;28;20084;-70
2024/03/02 12:44:10;;;;;;;10.45;2.70;;;;;;;10.27;87.01;99886.16;5111683;28;20041;-70
2024/03/02 12:46:58;;;;;;;7.90;2.60;;;;;;;10.30;87.49;99882.09;5097001;28;20043;-71
2024/03/02 12:49:50;;;;;;;7.65;2.80;;;;;;;10.30;87.65;99876.63;5096058;28;20054;-71
2024/03/02 12:52:38;;;;;;;6.65;2.40;;;;;;;10.34;85.70;99878.50;5097930;28;20043;-71
2024/03/02 12:55:28;;;;;;;6.38;2.60;;;;;;;10.37;85.48;99877.09;5084827;28;20049;-71
2024/03/02 12:58:23;;;;;;;6.40;2.47;;;;;;;10.46;89.60;99883.50;5084654;28;20127;-71
2024/03/02 13:01:11;;;;;;;6.07;2.42;;;;;;;10.55;85.61;99884.50;5094050;27;20058;-71
2024/03/02 13:04:00;;;;;;;7.28;2.13;;;;;;;10.55;83.51;99879.06;5081601;28;20043;-72
2024/03/02 13:06:48;;;;;;;7.13;2.28;;;;;;;10.57;82.30;99884.22;5096679;28;20410;-72
2024/03/02 13:09:36;;;;;;;5.60;2.25;;;;;;;10.58;80.87;99877.66;5076599;28;20058;-73
2024/03/02 13:12:25;;;;;;;4.85;2.20;;;;;;;10.52;81.59;99866.03;5062478;28;20055;-71
2024/03/02 13:15:13;;;;;;;7.28;2.40;;;;;;;10.46;82.49;99867.16;5077188;28;20353;-72
2024/03/02 13:18:06;;;;;;;7.03;2.10;;;;;;;10.44;84.41;99861.22;5095286;28;20161;-72
2024/03/02 13:20:56;;;;;;;6.13;2.25;;;;;;;10.50;83.78;99865.50;5085387;27;20118;-72
2024/03/02 13:23:44;;;;;;;7.07;2.50;;;;;;;10.54;83.98;99855.66;5048477;28;20044;-71